NATURA VA

 INFORMACIÓN METAR y TAF
METAR FOR LFPO
ADDS - METARS form results

(2240 UTC 17 June 2019)
Data provider http://aviationweather.gov/metar/data/
 
METAR text: LFPO 172230Z 01001KT CAVOK 18/14 Q1016 NOSIG
Conditions at: LFPO (PARIS/ORLY , FR) observed 2230 UTC 17 June 2019
Temperature: 18.0°C (64°F)
Dewpoint: 14.0°C (57°F) [RH = 77%]
Pressure (altimeter): 30.00 inches Hg (1016.0 mb)
Winds: from the N (10 degrees) at 1 MPH (1 knots; 0.5 m/s)
Visibility: 6 or more miles (10+ km)
Ceiling: ceiling and visibility are OK
Clouds: unknown
Weather: no significant weather observed at this time

METAR text: LFPO 172200Z 00000KT CAVOK 18/14 Q1016 NOSIG
Conditions at: LFPO (PARIS/ORLY , FR) observed 2200 UTC 17 June 2019
Temperature: 18.0°C (64°F)
Dewpoint: 14.0°C (57°F) [RH = 77%]
Pressure (altimeter): 30.00 inches Hg (1016.0 mb)
Winds: calm
Visibility: 6 or more miles (10+ km)
Ceiling: ceiling and visibility are OK
Clouds: unknown
Weather: no significant weather observed at this time

Forecast for: LFPO (PARIS/ORLY , FR)
Text: TAF LFPO 171700Z 1718/1824 15005KT CAVOK
Forecast period: 1800 UTC 17 June 2019 to 0000 UTC 19 June 2019
Forecast type: FROM: standard forecast or significant change
Winds: from the SSE (150 degrees) at 6 MPH (5 knots; 2.6 m/s)
Visibility: 6 or more miles 10+ km)
Ceiling: unknown
Clouds: missing
Weather: NSW  (no significant weather)
Text: PROB30
Forecast period: 2000 UTC 18 June 2019 to 0000 UTC 19 June 2019
Forecast type: TEMPORARY: The following changes expected for less than half the time period
Winds: variable direction winds at 17 MPH (15 knots; 7.7 m/s)
gusting to 34 MPH (30 knots; 15.4 m/s)
Visibility: 2.49 miles (4.01 km)
Ceiling: 6000 feet AGL
Clouds: scattered clouds at 4000 feet AGL
broken clouds at 6000 feet AGL
Weather: TSRA  (rain associated with thunderstorm(s))

 MAPA DE AEROPUERTO

 INFORMACIÓN DE PISTA
Pista 02 Longitud 7874 ft Ancho 197 ft
Elevación 287 ft Umbral desplazado 0 ft Rumbo de pista 18
Pista 20 Longitud 7874 ft Ancho 197 ft
Elevación 287 ft Umbral desplazado 0 ft Rumbo de pista 198
Pista 06 Longitud 11975 ft Ancho 148 ft
Elevación 283 ft Umbral desplazado 984 ft Rumbo de pista 62
Pista 24 Longitud 11975 ft Ancho 148 ft
Elevación 284 ft Umbral desplazado 0 ft Rumbo de pista 242
Pista 08 Longitud 10892 ft Ancho 148 ft
Elevación 277 ft Umbral desplazado 0 ft Rumbo de pista 74
Pista 26 Longitud 10892 ft Ancho 148 ft
Elevación 287 ft Umbral desplazado 1427 ft Rumbo de pista 254

 FRECUANCIAS DEL AEROPUERTO
Tipo APP Nombre APP Frecuencia 123.875 MHZ
Tipo ATIS Nombre ATIS Frecuencia 131.35 MHZ
Tipo DEP Nombre DEP Frecuencia 127.75 MHZ
Tipo GND Nombre GND Frecuencia 121.7 MHZ
Tipo PFLT Nombre PREFLIGHT Frecuencia 121.05 MHZ
Tipo TWR Nombre TWR Frecuencia 118.7 MHZ

 RADIO AYUDAS DEL AEROPUERTO
Tipo VOR-DME Nombre Orly Frecuencia 111200 KHZ



Powered by Virtual Airlines Manager [v2.6.2]